sensor_id;sensor_type;location;lat;lon;timestamp;temperature;humidity
14705;DHT22;7442;50.840;3.396;2023-07-16T00:01:20;24.30;52.20
14705;DHT22;7442;50.840;3.396;2023-07-16T00:04:06;24.30;52.20
14705;DHT22;7442;50.840;3.396;2023-07-16T00:06:52;24.30;52.20
14705;DHT22;7442;50.840;3.396;2023-07-16T00:09:38;24.30;52.20
14705;DHT22;7442;50.840;3.396;2023-07-16T00:12:24;24.30;52.20
14705;DHT22;7442;50.840;3.396;2023-07-16T00:15:10;24.30;52.20
14705;DHT22;7442;50.840;3.396;2023-07-16T00:17:57;24.30;52.20
14705;DHT22;7442;50.840;3.396;2023-07-16T00:20:43;24.30;52.20
14705;DHT22;7442;50.840;3.396;2023-07-16T00:23:29;24.30;52.20
14705;DHT22;7442;50.840;3.396;2023-07-16T00:26:15;24.30;52.20
14705;DHT22;7442;50.840;3.396;2023-07-16T00:29:02;24.30;52.30
14705;DHT22;7442;50.840;3.396;2023-07-16T00:31:47;24.30;52.30
14705;DHT22;7442;50.840;3.396;2023-07-16T00:34:34;24.30;52.30
14705;DHT22;7442;50.840;3.396;2023-07-16T00:37:20;24.20;52.30
14705;DHT22;7442;50.840;3.396;2023-07-16T00:40:07;24.30;52.30
14705;DHT22;7442;50.840;3.396;2023-07-16T00:42:53;24.20;52.30
14705;DHT22;7442;50.840;3.396;2023-07-16T00:45:40;24.20;52.30
14705;DHT22;7442;50.840;3.396;2023-07-16T00:48:29;24.20;52.30
14705;DHT22;7442;50.840;3.396;2023-07-16T00:51:15;24.20;52.30
14705;DHT22;7442;50.840;3.396;2023-07-16T00:54:02;24.30;52.40
14705;DHT22;7442;50.840;3.396;2023-07-16T00:56:48;24.20;52.40
14705;DHT22;7442;50.840;3.396;2023-07-16T00:59:34;24.20;52.40
14705;DHT22;7442;50.840;3.396;2023-07-16T01:02:21;24.20;52.40
14705;DHT22;7442;50.840;3.396;2023-07-16T01:05:08;24.20;52.40
14705;DHT22;7442;50.840;3.396;2023-07-16T01:07:57;24.20;52.30
14705;DHT22;7442;50.840;3.396;2023-07-16T01:10:44;24.20;52.40
14705;DHT22;7442;50.840;3.396;2023-07-16T01:13:30;24.20;52.30
14705;DHT22;7442;50.840;3.396;2023-07-16T01:16:21;24.20;52.30
14705;DHT22;7442;50.840;3.396;2023-07-16T01:19:08;24.20;52.40
14705;DHT22;7442;50.840;3.396;2023-07-16T01:22:23;24.10;52.30
14705;DHT22;7442;50.840;3.396;2023-07-16T01:25:36;24.10;52.30
14705;DHT22;7442;50.840;3.396;2023-07-16T01:28:32;24.10;52.30
14705;DHT22;7442;50.840;3.396;2023-07-16T01:31:17;24.10;52.30
14705;DHT22;7442;50.840;3.396;2023-07-16T01:34:05;24.10;52.30
14705;DHT22;7442;50.840;3.396;2023-07-16T01:36:51;24.10;52.20
14705;DHT22;7442;50.840;3.396;2023-07-16T01:39:38;24.10;52.30
14705;DHT22;7442;50.840;3.396;2023-07-16T01:42:25;24.10;52.30
14705;DHT22;7442;50.840;3.396;2023-07-16T01:45:11;24.10;52.20
14705;DHT22;7442;50.840;3.396;2023-07-16T01:51:06;24.00;52.20
14705;DHT22;7442;50.840;3.396;2023-07-16T01:53:53;24.10;52.10
14705;DHT22;7442;50.840;3.396;2023-07-16T01:56:39;24.00;52.80
14705;DHT22;7442;50.840;3.396;2023-07-16T01:59:25;24.00;52.20
14705;DHT22;7442;50.840;3.396;2023-07-16T02:02:11;24.00;52.10
14705;DHT22;7442;50.840;3.396;2023-07-16T02:04:57;24.00;52.20
14705;DHT22;7442;50.840;3.396;2023-07-16T02:07:44;24.00;52.20
14705;DHT22;7442;50.840;3.396;2023-07-16T02:10:30;24.00;52.20
14705;DHT22;7442;50.840;3.396;2023-07-16T02:13:16;24.00;52.10
14705;DHT22;7442;50.840;3.396;2023-07-16T02:16:03;24.00;52.20
14705;DHT22;7442;50.840;3.396;2023-07-16T02:18:49;23.90;52.10
14705;DHT22;7442;50.840;3.396;2023-07-16T02:21:36;24.00;52.20
14705;DHT22;7442;50.840;3.396;2023-07-16T02:24:22;23.90;52.10
14705;DHT22;7442;50.840;3.396;2023-07-16T02:27:08;23.90;52.10
14705;DHT22;7442;50.840;3.396;2023-07-16T02:29:54;23.90;52.00
14705;DHT22;7442;50.840;3.396;2023-07-16T02:32:42;23.90;52.10
14705;DHT22;7442;50.840;3.396;2023-07-16T02:35:29;23.90;52.10
14705;DHT22;7442;50.840;3.396;2023-07-16T02:38:16;23.90;52.10
14705;DHT22;7442;50.840;3.396;2023-07-16T02:41:02;23.90;52.20
14705;DHT22;7442;50.840;3.396;2023-07-16T02:43:58;23.90;52.10
14705;DHT22;7442;50.840;3.396;2023-07-16T02:46:39;23.90;52.00
14705;DHT22;7442;50.840;3.396;2023-07-16T02:49:27;23.90;52.00
14705;DHT22;7442;50.840;3.396;2023-07-16T02:52:13;23.90;52.10
14705;DHT22;7442;50.840;3.396;2023-07-16T02:54:59;23.90;52.00
14705;DHT22;7442;50.840;3.396;2023-07-16T02:57:45;23.90;52.00
14705;DHT22;7442;50.840;3.396;2023-07-16T03:00:32;23.90;52.00
14705;DHT22;7442;50.840;3.396;2023-07-16T03:03:18;23.80;52.00
14705;DHT22;7442;50.840;3.396;2023-07-16T03:06:05;23.80;52.00
14705;DHT22;7442;50.840;3.396;2023-07-16T03:08:51;23.80;52.00
14705;DHT22;7442;50.840;3.396;2023-07-16T03:11:37;23.80;52.00
14705;DHT22;7442;50.840;3.396;2023-07-16T03:14:23;23.80;52.10
14705;DHT22;7442;50.840;3.396;2023-07-16T03:17:09;23.80;51.90
14705;DHT22;7442;50.840;3.396;2023-07-16T03:19:56;23.80;51.90
14705;DHT22;7442;50.840;3.396;2023-07-16T03:22:42;23.80;52.00
14705;DHT22;7442;50.840;3.396;2023-07-16T03:25:28;23.70;52.00
14705;DHT22;7442;50.840;3.396;2023-07-16T03:28:15;23.80;51.90
14705;DHT22;7442;50.840;3.396;2023-07-16T03:31:01;23.80;51.90
14705;DHT22;7442;50.840;3.396;2023-07-16T03:33:47;23.70;51.90
14705;DHT22;7442;50.840;3.396;2023-07-16T03:36:34;23.80;52.00
14705;DHT22;7442;50.840;3.396;2023-07-16T03:39:20;23.80;52.00
14705;DHT22;7442;50.840;3.396;2023-07-16T03:42:06;23.70;51.90
14705;DHT22;7442;50.840;3.396;2023-07-16T03:44:52;23.80;51.90
14705;DHT22;7442;50.840;3.396;2023-07-16T03:47:38;23.80;51.90
14705;DHT22;7442;50.840;3.396;2023-07-16T03:50:25;23.70;51.90
14705;DHT22;7442;50.840;3.396;2023-07-16T03:53:11;23.70;51.90
14705;DHT22;7442;50.840;3.396;2023-07-16T03:55:59;23.70;51.90
14705;DHT22;7442;50.840;3.396;2023-07-16T03:58:45;23.70;51.90
14705;DHT22;7442;50.840;3.396;2023-07-16T04:01:31;23.70;51.90
14705;DHT22;7442;50.840;3.396;2023-07-16T04:04:17;23.70;51.90
14705;DHT22;7442;50.840;3.396;2023-07-16T04:07:04;23.70;51.90
14705;DHT22;7442;50.840;3.396;2023-07-16T04:09:50;23.70;51.90
14705;DHT22;7442;50.840;3.396;2023-07-16T04:12:37;23.70;51.80
14705;DHT22;7442;50.840;3.396;2023-07-16T04:15:23;23.70;51.80
14705;DHT22;7442;50.840;3.396;2023-07-16T04:18:09;23.70;51.90
14705;DHT22;7442;50.840;3.396;2023-07-16T04:20:56;23.60;51.80
14705;DHT22;7442;50.840;3.396;2023-07-16T04:23:42;23.60;51.80
14705;DHT22;7442;50.840;3.396;2023-07-16T04:26:28;23.70;51.80
14705;DHT22;7442;50.840;3.396;2023-07-16T04:29:15;23.60;51.80
14705;DHT22;7442;50.840;3.396;2023-07-16T04:32:02;23.70;51.80
14705;DHT22;7442;50.840;3.396;2023-07-16T04:34:51;23.60;51.80
14705;DHT22;7442;50.840;3.396;2023-07-16T04:37:38;23.60;51.80
14705;DHT22;7442;50.840;3.396;2023-07-16T04:40:24;23.60;51.80
14705;DHT22;7442;50.840;3.396;2023-07-16T04:43:11;23.60;51.80
14705;DHT22;7442;50.840;3.396;2023-07-16T04:45:57;23.60;51.80
14705;DHT22;7442;50.840;3.396;2023-07-16T04:48:44;23.60;51.80
14705;DHT22;7442;50.840;3.396;2023-07-16T04:51:30;23.60;51.80
14705;DHT22;7442;50.840;3.396;2023-07-16T04:54:17;23.60;51.80
14705;DHT22;7442;50.840;3.396;2023-07-16T04:57:05;23.60;51.80
14705;DHT22;7442;50.840;3.396;2023-07-16T04:59:51;23.60;51.80
14705;DHT22;7442;50.840;3.396;2023-07-16T05:02:38;23.60;52.50
14705;DHT22;7442;50.840;3.396;2023-07-16T05:05:24;23.60;51.80
14705;DHT22;7442;50.840;3.396;2023-07-16T05:08:10;23.60;51.80
14705;DHT22;7442;50.840;3.396;2023-07-16T05:10:57;23.60;51.80
14705;DHT22;7442;50.840;3.396;2023-07-16T05:13:44;23.60;51.90
14705;DHT22;7442;50.840;3.396;2023-07-16T05:16:35;23.60;51.90
14705;DHT22;7442;50.840;3.396;2023-07-16T05:19:22;23.60;51.90
14705;DHT22;7442;50.840;3.396;2023-07-16T05:22:08;23.50;51.80
14705;DHT22;7442;50.840;3.396;2023-07-16T05:24:55;23.50;51.80
14705;DHT22;7442;50.840;3.396;2023-07-16T05:27:41;23.50;51.90
14705;DHT22;7442;50.840;3.396;2023-07-16T05:30:28;23.50;51.90
14705;DHT22;7442;50.840;3.396;2023-07-16T05:33:14;23.50;51.90
14705;DHT22;7442;50.840;3.396;2023-07-16T05:36:00;23.50;51.90
14705;DHT22;7442;50.840;3.396;2023-07-16T05:38:46;23.50;51.90
14705;DHT22;7442;50.840;3.396;2023-07-16T05:41:32;23.50;51.90
14705;DHT22;7442;50.840;3.396;2023-07-16T05:44:19;23.50;51.90
14705;DHT22;7442;50.840;3.396;2023-07-16T05:47:05;23.50;51.90
14705;DHT22;7442;50.840;3.396;2023-07-16T05:49:53;23.50;52.00
14705;DHT22;7442;50.840;3.396;2023-07-16T05:52:40;23.50;51.90
14705;DHT22;7442;50.840;3.396;2023-07-16T05:55:26;23.50;51.90
14705;DHT22;7442;50.840;3.396;2023-07-16T05:58:12;23.50;51.90
14705;DHT22;7442;50.840;3.396;2023-07-16T06:00:59;23.50;52.00
14705;DHT22;7442;50.840;3.396;2023-07-16T06:03:45;23.50;52.10
14705;DHT22;7442;50.840;3.396;2023-07-16T06:06:32;23.50;52.00
14705;DHT22;7442;50.840;3.396;2023-07-16T06:09:18;23.50;52.10
14705;DHT22;7442;50.840;3.396;2023-07-16T06:12:04;23.60;52.00
14705;DHT22;7442;50.840;3.396;2023-07-16T06:14:51;23.60;52.10
14705;DHT22;7442;50.840;3.396;2023-07-16T06:17:38;23.70;52.10
14705;DHT22;7442;50.840;3.396;2023-07-16T06:20:24;23.70;52.10
14705;DHT22;7442;50.840;3.396;2023-07-16T06:23:11;23.70;52.00
14705;DHT22;7442;50.840;3.396;2023-07-16T06:25:58;23.70;52.00
14705;DHT22;7442;50.840;3.396;2023-07-16T06:28:44;23.70;51.90
14705;DHT22;7442;50.840;3.396;2023-07-16T06:31:32;23.70;52.10
14705;DHT22;7442;50.840;3.396;2023-07-16T06:34:18;23.60;52.30
14705;DHT22;7442;50.840;3.396;2023-07-16T06:37:05;23.60;52.60
14705;DHT22;7442;50.840;3.396;2023-07-16T06:39:52;23.50;52.70
14705;DHT22;7442;50.840;3.396;2023-07-16T06:42:39;23.40;52.70
14705;DHT22;7442;50.840;3.396;2023-07-16T06:45:26;23.50;53.00
14705;DHT22;7442;50.840;3.396;2023-07-16T06:48:12;23.50;53.10
14705;DHT22;7442;50.840;3.396;2023-07-16T06:50:59;23.50;53.20
14705;DHT22;7442;50.840;3.396;2023-07-16T06:53:46;23.50;53.20
14705;DHT22;7442;50.840;3.396;2023-07-16T06:56:33;23.50;53.20
14705;DHT22;7442;50.840;3.396;2023-07-16T06:59:20;23.50;53.30
14705;DHT22;7442;50.840;3.396;2023-07-16T07:02:06;23.70;53.10
14705;DHT22;7442;50.840;3.396;2023-07-16T07:04:53;23.70;52.90
14705;DHT22;7442;50.840;3.396;2023-07-16T07:07:39;23.70;52.80
14705;DHT22;7442;50.840;3.396;2023-07-16T07:10:25;23.60;53.20
14705;DHT22;7442;50.840;3.396;2023-07-16T07:13:12;23.50;53.10
14705;DHT22;7442;50.840;3.396;2023-07-16T07:15:58;23.60;53.40
14705;DHT22;7442;50.840;3.396;2023-07-16T07:18:44;23.50;53.30
14705;DHT22;7442;50.840;3.396;2023-07-16T07:21:30;23.50;53.40
14705;DHT22;7442;50.840;3.396;2023-07-16T07:24:23;23.60;53.50
14705;DHT22;7442;50.840;3.396;2023-07-16T07:27:09;23.60;53.50
14705;DHT22;7442;50.840;3.396;2023-07-16T07:29:55;23.70;53.50
14705;DHT22;7442;50.840;3.396;2023-07-16T07:32:41;23.90;53.20
14705;DHT22;7442;50.840;3.396;2023-07-16T07:35:28;23.90;53.30
14705;DHT22;7442;50.840;3.396;2023-07-16T07:38:15;23.90;53.20
14705;DHT22;7442;50.840;3.396;2023-07-16T07:41:01;23.90;53.30
14705;DHT22;7442;50.840;3.396;2023-07-16T07:43:47;23.80;53.60
14705;DHT22;7442;50.840;3.396;2023-07-16T07:46:34;23.70;53.70
14705;DHT22;7442;50.840;3.396;2023-07-16T07:49:20;23.70;53.70
14705;DHT22;7442;50.840;3.396;2023-07-16T07:52:07;23.80;53.50
14705;DHT22;7442;50.840;3.396;2023-07-16T07:54:53;23.90;53.60
14705;DHT22;7442;50.840;3.396;2023-07-16T07:57:40;23.90;53.30
14705;DHT22;7442;50.840;3.396;2023-07-16T08:00:27;23.90;53.70
14705;DHT22;7442;50.840;3.396;2023-07-16T08:03:13;23.80;53.60
14705;DHT22;7442;50.840;3.396;2023-07-16T08:05:59;23.70;53.90
14705;DHT22;7442;50.840;3.396;2023-07-16T08:08:46;23.70;54.10
14705;DHT22;7442;50.840;3.396;2023-07-16T08:11:32;23.60;54.00
14705;DHT22;7442;50.840;3.396;2023-07-16T08:14:18;23.60;54.00
14705;DHT22;7442;50.840;3.396;2023-07-16T08:17:05;23.60;54.20
14705;DHT22;7442;50.840;3.396;2023-07-16T08:19:52;23.60;54.20
14705;DHT22;7442;50.840;3.396;2023-07-16T08:22:38;23.70;54.20
14705;DHT22;7442;50.840;3.396;2023-07-16T08:25:25;23.70;54.20
14705;DHT22;7442;50.840;3.396;2023-07-16T08:28:12;23.70;54.40
14705;DHT22;7442;50.840;3.396;2023-07-16T08:30:59;23.70;54.20
14705;DHT22;7442;50.840;3.396;2023-07-16T08:33:45;23.60;54.20
14705;DHT22;7442;50.840;3.396;2023-07-16T08:36:33;23.60;54.80
14705;DHT22;7442;50.840;3.396;2023-07-16T08:39:19;23.60;54.20
14705;DHT22;7442;50.840;3.396;2023-07-16T08:42:06;23.50;54.20
14705;DHT22;7442;50.840;3.396;2023-07-16T08:44:52;23.60;54.40
14705;DHT22;7442;50.840;3.396;2023-07-16T08:47:40;23.70;54.20
14705;DHT22;7442;50.840;3.396;2023-07-16T08:50:27;23.70;54.20
14705;DHT22;7442;50.840;3.396;2023-07-16T08:53:15;23.70;54.00
14705;DHT22;7442;50.840;3.396;2023-07-16T08:56:02;23.70;54.00
14705;DHT22;7442;50.840;3.396;2023-07-16T08:58:50;23.70;54.00
14705;DHT22;7442;50.840;3.396;2023-07-16T09:01:39;23.80;53.70
14705;DHT22;7442;50.840;3.396;2023-07-16T09:04:25;23.80;53.70
14705;DHT22;7442;50.840;3.396;2023-07-16T09:07:11;23.70;53.90
14705;DHT22;7442;50.840;3.396;2023-07-16T09:09:59;23.70;55.20
14705;DHT22;7442;50.840;3.396;2023-07-16T09:12:46;23.60;55.80
14705;DHT22;7442;50.840;3.396;2023-07-16T09:15:33;23.70;55.40
14705;DHT22;7442;50.840;3.396;2023-07-16T09:18:24;23.70;55.10
14705;DHT22;7442;50.840;3.396;2023-07-16T09:21:11;23.70;55.00
14705;DHT22;7442;50.840;3.396;2023-07-16T09:23:57;23.80;54.90
14705;DHT22;7442;50.840;3.396;2023-07-16T09:26:51;23.90;54.70
14705;DHT22;7442;50.840;3.396;2023-07-16T09:29:38;23.90;54.40
14705;DHT22;7442;50.840;3.396;2023-07-16T09:32:35;23.90;54.40
14705;DHT22;7442;50.840;3.396;2023-07-16T09:35:23;23.90;54.20
14705;DHT22;7442;50.840;3.396;2023-07-16T09:38:10;23.90;53.50
14705;DHT22;7442;50.840;3.396;2023-07-16T09:40:59;23.80;53.30
14705;DHT22;7442;50.840;3.396;2023-07-16T09:43:46;23.80;53.40
14705;DHT22;7442;50.840;3.396;2023-07-16T09:46:33;23.80;53.50
14705;DHT22;7442;50.840;3.396;2023-07-16T09:49:19;23.80;53.30
14705;DHT22;7442;50.840;3.396;2023-07-16T09:52:06;23.80;53.40
14705;DHT22;7442;50.840;3.396;2023-07-16T09:54:55;23.90;53.40
14705;DHT22;7442;50.840;3.396;2023-07-16T09:57:43;24.00;53.10
14705;DHT22;7442;50.840;3.396;2023-07-16T10:00:30;24.10;52.90
14705;DHT22;7442;50.840;3.396;2023-07-16T10:03:18;24.20;52.70
14705;DHT22;7442;50.840;3.396;2023-07-16T10:06:08;24.30;52.50
14705;DHT22;7442;50.840;3.396;2023-07-16T10:08:54;24.40;52.50
14705;DHT22;7442;50.840;3.396;2023-07-16T10:11:42;24.40;52.50
14705;DHT22;7442;50.840;3.396;2023-07-16T10:14:29;24.40;52.60
14705;DHT22;7442;50.840;3.396;2023-07-16T10:17:18;24.50;52.50
14705;DHT22;7442;50.840;3.396;2023-07-16T10:20:09;24.50;52.40
14705;DHT22;7442;50.840;3.396;2023-07-16T10:22:56;24.50;52.60
14705;DHT22;7442;50.840;3.396;2023-07-16T10:26:00;24.50;52.50
14705;DHT22;7442;50.840;3.396;2023-07-16T10:28:46;24.60;52.20
14705;DHT22;7442;50.840;3.396;2023-07-16T10:31:33;24.70;51.90
14705;DHT22;7442;50.840;3.396;2023-07-16T10:34:22;24.70;51.90
14705;DHT22;7442;50.840;3.396;2023-07-16T10:37:09;24.80;51.70
14705;DHT22;7442;50.840;3.396;2023-07-16T10:39:57;24.90;51.40
14705;DHT22;7442;50.840;3.396;2023-07-16T10:42:44;24.80;51.40
14705;DHT22;7442;50.840;3.396;2023-07-16T10:45:32;24.90;51.20
14705;DHT22;7442;50.840;3.396;2023-07-16T10:48:24;24.90;51.10
14705;DHT22;7442;50.840;3.396;2023-07-16T10:51:08;25.00;51.00
14705;DHT22;7442;50.840;3.396;2023-07-16T10:53:57;25.10;50.80
14705;DHT22;7442;50.840;3.396;2023-07-16T10:56:44;25.00;51.00
14705;DHT22;7442;50.840;3.396;2023-07-16T10:59:32;25.10;50.80
14705;DHT22;7442;50.840;3.396;2023-07-16T11:02:20;25.10;50.60
14705;DHT22;7442;50.840;3.396;2023-07-16T11:05:11;25.10;50.60
14705;DHT22;7442;50.840;3.396;2023-07-16T11:07:58;25.20;50.90
14705;DHT22;7442;50.840;3.396;2023-07-16T11:10:44;25.10;50.90
14705;DHT22;7442;50.840;3.396;2023-07-16T11:13:34;25.10;50.90
14705;DHT22;7442;50.840;3.396;2023-07-16T11:16:20;25.10;50.80
14705;DHT22;7442;50.840;3.396;2023-07-16T11:19:07;25.10;50.90
14705;DHT22;7442;50.840;3.396;2023-07-16T11:21:54;25.10;50.80
14705;DHT22;7442;50.840;3.396;2023-07-16T11:24:45;25.10;50.80
14705;DHT22;7442;50.840;3.396;2023-07-16T11:27:32;25.10;50.80
14705;DHT22;7442;50.840;3.396;2023-07-16T11:30:22;25.10;50.70
14705;DHT22;7442;50.840;3.396;2023-07-16T11:33:11;25.10;50.90
14705;DHT22;7442;50.840;3.396;2023-07-16T11:35:58;25.10;50.70
14705;DHT22;7442;50.840;3.396;2023-07-16T11:38:44;25.10;50.70
14705;DHT22;7442;50.840;3.396;2023-07-16T11:41:31;25.00;50.60
14705;DHT22;7442;50.840;3.396;2023-07-16T11:44:19;25.00;50.70
14705;DHT22;7442;50.840;3.396;2023-07-16T11:47:05;25.00;50.60
14705;DHT22;7442;50.840;3.396;2023-07-16T11:49:52;25.00;50.50
14705;DHT22;7442;50.840;3.396;2023-07-16T11:52:39;25.00;50.60
14705;DHT22;7442;50.840;3.396;2023-07-16T11:55:25;25.00;50.60
14705;DHT22;7442;50.840;3.396;2023-07-16T11:58:12;24.90;50.40
14705;DHT22;7442;50.840;3.396;2023-07-16T12:00:59;24.90;50.50
14705;DHT22;7442;50.840;3.396;2023-07-16T12:03:45;25.00;50.40
14705;DHT22;7442;50.840;3.396;2023-07-16T12:06:31;25.00;50.40
14705;DHT22;7442;50.840;3.396;2023-07-16T12:09:18;25.00;50.10
14705;DHT22;7442;50.840;3.396;2023-07-16T12:12:05;25.00;49.90
14705;DHT22;7442;50.840;3.396;2023-07-16T12:14:51;25.00;49.80
14705;DHT22;7442;50.840;3.396;2023-07-16T12:17:38;25.00;49.60
14705;DHT22;7442;50.840;3.396;2023-07-16T12:20:24;25.00;49.80
14705;DHT22;7442;50.840;3.396;2023-07-16T12:23:11;25.00;50.00
14705;DHT22;7442;50.840;3.396;2023-07-16T12:25:57;25.00;50.00
14705;DHT22;7442;50.840;3.396;2023-07-16T12:28:44;24.90;50.00
14705;DHT22;7442;50.840;3.396;2023-07-16T12:31:32;24.90;49.70
14705;DHT22;7442;50.840;3.396;2023-07-16T12:34:18;24.90;49.90
14705;DHT22;7442;50.840;3.396;2023-07-16T12:37:05;24.90;49.80
14705;DHT22;7442;50.840;3.396;2023-07-16T12:39:53;24.90;49.70
14705;DHT22;7442;50.840;3.396;2023-07-16T12:42:39;24.90;49.60
14705;DHT22;7442;50.840;3.396;2023-07-16T12:45:26;24.90;49.70
14705;DHT22;7442;50.840;3.396;2023-07-16T12:48:14;24.90;49.80
14705;DHT22;7442;50.840;3.396;2023-07-16T12:51:00;25.00;49.80
14705;DHT22;7442;50.840;3.396;2023-07-16T12:53:46;24.90;50.00
14705;DHT22;7442;50.840;3.396;2023-07-16T12:56:33;24.90;50.00
14705;DHT22;7442;50.840;3.396;2023-07-16T12:59:19;24.90;50.10
14705;DHT22;7442;50.840;3.396;2023-07-16T13:02:06;24.90;50.10
14705;DHT22;7442;50.840;3.396;2023-07-16T13:04:52;24.90;50.20
14705;DHT22;7442;50.840;3.396;2023-07-16T13:07:39;24.90;50.10
14705;DHT22;7442;50.840;3.396;2023-07-16T13:10:25;24.90;50.00
14705;DHT22;7442;50.840;3.396;2023-07-16T13:13:11;24.90;49.90
14705;DHT22;7442;50.840;3.396;2023-07-16T13:15:58;24.90;50.00
14705;DHT22;7442;50.840;3.396;2023-07-16T13:18:44;24.90;50.00
14705;DHT22;7442;50.840;3.396;2023-07-16T13:21:31;24.90;49.90
14705;DHT22;7442;50.840;3.396;2023-07-16T13:24:17;24.90;50.00
14705;DHT22;7442;50.840;3.396;2023-07-16T13:27:04;24.90;50.10
14705;DHT22;7442;50.840;3.396;2023-07-16T13:29:50;24.90;50.20
14705;DHT22;7442;50.840;3.396;2023-07-16T13:32:36;24.90;50.30
14705;DHT22;7442;50.840;3.396;2023-07-16T13:35:23;24.80;50.30
14705;DHT22;7442;50.840;3.396;2023-07-16T13:38:09;24.90;50.30
14705;DHT22;7442;50.840;3.396;2023-07-16T13:40:56;24.90;50.30
14705;DHT22;7442;50.840;3.396;2023-07-16T13:43:42;24.90;50.20
14705;DHT22;7442;50.840;3.396;2023-07-16T13:46:28;24.90;50.20
14705;DHT22;7442;50.840;3.396;2023-07-16T13:49:14;24.80;50.30
14705;DHT22;7442;50.840;3.396;2023-07-16T13:52:00;24.80;50.20
14705;DHT22;7442;50.840;3.396;2023-07-16T13:54:47;24.80;50.30
14705;DHT22;7442;50.840;3.396;2023-07-16T13:57:34;24.80;50.40
14705;DHT22;7442;50.840;3.396;2023-07-16T14:00:20;24.80;50.40
14705;DHT22;7442;50.840;3.396;2023-07-16T14:03:07;24.70;50.40
14705;DHT22;7442;50.840;3.396;2023-07-16T14:05:53;24.70;50.50
14705;DHT22;7442;50.840;3.396;2023-07-16T14:08:39;24.70;50.60
14705;DHT22;7442;50.840;3.396;2023-07-16T14:11:25;24.70;50.60
14705;DHT22;7442;50.840;3.396;2023-07-16T14:14:13;24.70;50.60
14705;DHT22;7442;50.840;3.396;2023-07-16T14:16:59;24.60;50.40
14705;DHT22;7442;50.840;3.396;2023-07-16T14:19:46;24.60;50.50
14705;DHT22;7442;50.840;3.396;2023-07-16T14:22:32;24.60;50.60
14705;DHT22;7442;50.840;3.396;2023-07-16T14:25:18;24.60;50.60
14705;DHT22;7442;50.840;3.396;2023-07-16T14:28:05;24.60;50.80
14705;DHT22;7442;50.840;3.396;2023-07-16T14:30:51;24.60;51.10
14705;DHT22;7442;50.840;3.396;2023-07-16T14:33:37;24.50;51.40
14705;DHT22;7442;50.840;3.396;2023-07-16T14:36:24;24.50;51.70
14705;DHT22;7442;50.840;3.396;2023-07-16T14:39:10;24.50;51.90
14705;DHT22;7442;50.840;3.396;2023-07-16T14:41:56;24.50;52.10
14705;DHT22;7442;50.840;3.396;2023-07-16T14:44:44;24.50;52.20
14705;DHT22;7442;50.840;3.396;2023-07-16T14:47:30;24.50;52.30
14705;DHT22;7442;50.840;3.396;2023-07-16T14:50:16;24.50;52.30
14705;DHT22;7442;50.840;3.396;2023-07-16T14:53:04;24.40;52.30
14705;DHT22;7442;50.840;3.396;2023-07-16T14:55:52;24.50;52.30
14705;DHT22;7442;50.840;3.396;2023-07-16T14:58:38;24.40;52.20
14705;DHT22;7442;50.840;3.396;2023-07-16T15:01:25;24.40;52.00
14705;DHT22;7442;50.840;3.396;2023-07-16T15:04:11;24.40;52.00
14705;DHT22;7442;50.840;3.396;2023-07-16T15:06:58;24.40;52.00
14705;DHT22;7442;50.840;3.396;2023-07-16T15:09:44;24.40;52.00
14705;DHT22;7442;50.840;3.396;2023-07-16T15:12:30;24.40;52.20
14705;DHT22;7442;50.840;3.396;2023-07-16T15:15:16;24.40;52.20
14705;DHT22;7442;50.840;3.396;2023-07-16T15:18:03;24.40;52.30
14705;DHT22;7442;50.840;3.396;2023-07-16T15:20:58;24.40;52.20
14705;DHT22;7442;50.840;3.396;2023-07-16T15:23:45;24.40;52.80
14705;DHT22;7442;50.840;3.396;2023-07-16T15:26:31;24.40;52.20
14705;DHT22;7442;50.840;3.396;2023-07-16T15:29:17;24.40;52.20
14705;DHT22;7442;50.840;3.396;2023-07-16T15:32:05;24.40;52.20
14705;DHT22;7442;50.840;3.396;2023-07-16T15:34:52;24.40;52.30
14705;DHT22;7442;50.840;3.396;2023-07-16T15:37:38;24.40;52.30
14705;DHT22;7442;50.840;3.396;2023-07-16T15:40:24;24.50;52.40
14705;DHT22;7442;50.840;3.396;2023-07-16T15:43:10;24.50;52.40
14705;DHT22;7442;50.840;3.396;2023-07-16T15:45:56;24.50;52.40
14705;DHT22;7442;50.840;3.396;2023-07-16T15:48:44;24.50;52.40
14705;DHT22;7442;50.840;3.396;2023-07-16T15:51:30;24.50;52.40
14705;DHT22;7442;50.840;3.396;2023-07-16T15:54:17;24.50;52.50
14705;DHT22;7442;50.840;3.396;2023-07-16T15:57:04;24.50;52.50
14705;DHT22;7442;50.840;3.396;2023-07-16T15:59:50;24.50;52.60
14705;DHT22;7442;50.840;3.396;2023-07-16T16:02:36;24.50;52.70
14705;DHT22;7442;50.840;3.396;2023-07-16T16:05:23;24.50;52.70
14705;DHT22;7442;50.840;3.396;2023-07-16T16:08:15;24.50;52.70
14705;DHT22;7442;50.840;3.396;2023-07-16T16:11:01;24.50;52.80
14705;DHT22;7442;50.840;3.396;2023-07-16T16:13:47;24.50;52.70
14705;DHT22;7442;50.840;3.396;2023-07-16T16:16:34;24.50;52.70
14705;DHT22;7442;50.840;3.396;2023-07-16T16:19:22;24.50;52.70
14705;DHT22;7442;50.840;3.396;2023-07-16T16:22:12;24.50;52.60
14705;DHT22;7442;50.840;3.396;2023-07-16T16:24:59;24.40;52.60
14705;DHT22;7442;50.840;3.396;2023-07-16T16:27:46;24.40;52.60
14705;DHT22;7442;50.840;3.396;2023-07-16T16:30:34;24.40;52.60
14705;DHT22;7442;50.840;3.396;2023-07-16T16:33:21;24.40;52.60
14705;DHT22;7442;50.840;3.396;2023-07-16T16:36:09;24.40;52.70
14705;DHT22;7442;50.840;3.396;2023-07-16T16:38:56;24.40;52.60
14705;DHT22;7442;50.840;3.396;2023-07-16T16:41:43;24.40;52.60
14705;DHT22;7442;50.840;3.396;2023-07-16T16:44:32;24.40;52.50
14705;DHT22;7442;50.840;3.396;2023-07-16T16:47:18;24.40;52.50
14705;DHT22;7442;50.840;3.396;2023-07-16T16:50:05;24.50;52.50
14705;DHT22;7442;50.840;3.396;2023-07-16T16:52:53;24.60;51.30
14705;DHT22;7442;50.840;3.396;2023-07-16T16:55:41;24.50;51.30
14705;DHT22;7442;50.840;3.396;2023-07-16T16:58:27;24.50;51.20
14705;DHT22;7442;50.840;3.396;2023-07-16T17:01:14;24.50;50.80
14705;DHT22;7442;50.840;3.396;2023-07-16T17:04:01;24.40;50.60
14705;DHT22;7442;50.840;3.396;2023-07-16T17:06:48;24.40;50.80
14705;DHT22;7442;50.840;3.396;2023-07-16T17:09:35;24.30;51.30
14705;DHT22;7442;50.840;3.396;2023-07-16T17:12:22;24.30;51.60
14705;DHT22;7442;50.840;3.396;2023-07-16T17:15:09;24.20;51.70
14705;DHT22;7442;50.840;3.396;2023-07-16T17:17:55;24.30;51.70
14705;DHT22;7442;50.840;3.396;2023-07-16T17:20:42;24.30;51.90
14705;DHT22;7442;50.840;3.396;2023-07-16T17:23:28;24.40;51.80
14705;DHT22;7442;50.840;3.396;2023-07-16T17:26:15;24.30;52.10
14705;DHT22;7442;50.840;3.396;2023-07-16T17:29:01;24.30;52.10
14705;DHT22;7442;50.840;3.396;2023-07-16T17:31:48;24.30;52.20
14705;DHT22;7442;50.840;3.396;2023-07-16T17:34:34;24.20;52.70
14705;DHT22;7442;50.840;3.396;2023-07-16T17:37:21;24.30;52.80
14705;DHT22;7442;50.840;3.396;2023-07-16T17:40:08;24.20;52.70
14705;DHT22;7442;50.840;3.396;2023-07-16T17:42:56;24.20;52.60
14705;DHT22;7442;50.840;3.396;2023-07-16T17:45:44;24.10;52.50
14705;DHT22;7442;50.840;3.396;2023-07-16T17:48:30;24.10;52.80
14705;DHT22;7442;50.840;3.396;2023-07-16T17:51:17;24.00;52.90
14705;DHT22;7442;50.840;3.396;2023-07-16T17:54:03;24.00;53.20